Terminal Aerodrome Forecast
Issued by NWS Greer, SC

Home | Current Version | Previous Version | Text Only | Print | Product List | Glossary On
Versions: 1 2 3 4 5 6 7 8 9 10 11 12 13 14 15 16 17 18 19 20 21 22 23 24
000
FTUS42 KGSP 231729
TAFCLT
TAF
KCLT 231729Z 2318/2418 06015KT P6SM VCSH SCT004 OVC008
      TEMPO 2320/2323 -SHRA OVC004
     FM232300 06014G22KT 5SM SHRA BR OVC008
     FM240500 07014G21KT 3SM +SHRA BR OVC003
     FM241200 08013G20KT 3SM -SHRA BR OVC008 PROB30 2412/2418 1SM
      SHRA BR OVC003=

USA.gov is the U.S. government's official web portal to all federal, state and local government web resources and services.